Timeline UpdatesTrip UpdatesNews PostsPvt PostsTravel TipsAdmin PostsConv PostsFollowed PostsChat RequestsBlog PostsPNR Posts

Disclaimer
Search
 
 
Sun Apr 20, 2014 17:16:21 ISTHomeTrainsΣChainsAtlasPNRForumGalleryNewsFAQTripsMembersLoginFeedback
No Recent News for this Train
Other Trains in the News **new
Latest...
.
Mon Mar 03, 2014 (11:30AM)
⇐ Return Journey: Train# 13483

13484/Farakka Express (via Faizabad)

Mar 05 2014 (7:09PM)
Change Departure Station:
Change Arrival Station:
Post a Train Travel TipPost a Train Travel Tip **new
Post a Comment/Question/Picture/VideoPost a Comment/Question/Picture/Video
Pantry/Catering
✓ Pantry Car Avbl
✓ Catering Avbl
RSA - Rake Sharing
13413/13414/04031/04032
Rake/Coach Composition
LOCO-SLR-UR-UR-UR-S9-S8-S7-S6-S5-S4-S3-S2-S1-PC-B1-A1-UR-UR-SLR-HCPV
Loco
GZB#WAP7[DLI to LKO] from LKO to MLDT of TKD/LDH shed...
Read more...
/TKD WDM#3D
News    PNR    Forum    Time-Table    Availability    Fare Chart    Map    Arr/Dep History    Trips    Gallery    ΣChains    X/O    Timeline    
Travel Time: 22h 52m    39 halts    Distance: 1059 km    Avg Speed: 46 km/hr
Type: Mail/Express
Zone: ER/Eastern
Departs @ 21:50 (Avg 21m late)
Platform# 7
S T TF 
Old Delhi Junction/DLI 
Arrives @ 20:42 +1 night (Avg 2h 5m late)
Platform# ???
 M W FS
Patna Junction/PNBE 

39 halts. 175 intermediate Stations between Old Delhi Junction and Patna Junction

Show ALL intermediate Stations  Show Old Time-Table

#CodeStation NameX/OArrivesAvgDepartsAvgHaltPFDay#KmSpeedElevZoneAddress
1DLI»Old Delhi Junction (16)»  -21:50+21710.033219mNRNear Chandni Chowk Metro Station, Delhi NCT
2GZBGhaziabad Junction (6)  22:26+3322:28+392m2120.166217mNRGhaziabad, Uttar Pradesh
3KRJKhurja Junction (4)  23:25+1:1423:28+1:143m--182.742199mNCRBulandshahr, Uttar Pradesh
4ALJNAligarh Junction (4)  00:30+1:0100:35+1:015m22126.286192mNCRAligarh, Uttar Pradesh
5HRSHathras Junction (3)XO  00:56+1:0501:01+1:025m--2156.459183mNCRMahamaya Nagar(05722-242803), Uttar Pradesh
6TDLTundla Junction (4)X  01:50+1:0501:58+1:048m32204.450167mNCRDistt.Firozabad, Uttar Pradesh
7FZDFirozabad (4)X  02:18+1:0702:20+1:102m22220.963164mNCRFirozabad, Uttar Pradesh
8SKBShikohabad Junction (4)X  02:39+1:1002:41+1:122m22240.885166mNCRDistrict Firozabad, Uttar Pradesh
9ETWEtawah (5)X  03:20+1:1303:22+1:152m32296.265154mNCRDistt. Etawah, Uttar Pradesh
10CNBKanpur Central (10)X  05:30+1:1905:45+1:2215m72435.550128mNCRKanpur, Uttar Pradesh
11ONUnnao Junction (5)X  06:06+1:3306:08+1:332m--2453.045129mNRUnnao, Uttar Pradesh
12LKOLucknow Charbagh (9)X  07:20+1:2607:45+1:2825m--2507.549123mNRCharbagh, Uttar Pradesh
13BBKBarabanki Junction (4)  08:20+1:3808:22+1:402m--2536.152122mNRPin-225001, Uttar Pradesh
14DYDDaryabad  09:06+1:3309:07+1:331m--2574.169116mNRFaizabad Rd, Uttar Pradesh
15RDLRudauli (2)  09:27+1:3809:28+1:381m--2597.272112mNRRudauli, Uttar Pradesh
16SLWSohwal  09:47+1:4009:48+1:401m--2620.142107mNRFaizabad Rd, Uttar Pradesh
17FDFaizabad Junction (5)X  10:10+1:4810:15+1:495m--2635.313104mNRFaizabad, Uttar Pradesh
18ACNDAcharya Narendra Dev Nagar  10:25+1:4810:26+1:491m--2637.512104mNRFaizabad, Uttar Pradesh
19AYAyodhya Junction (3)X  10:48+1:3710:49+1:371m12642.06698mNRAyodhya, Uttar Pradesh
20GGJGoshainGanj (3)  11:18+1:3911:19+1:401m--2673.87498mNRGoshainganj, Uttar Pradesh
21ABPAkbarpur (2)  11:37+1:4411:39+1:452m--2696.07292mNRAkbarpur, Uttar Pradesh
22MLPRMalipur (2)  11:55+1:4911:56+1:491m--2715.16292mNRMalipur, Uttar Pradesh
23SHGShahganj Junction (4)  12:20+1:5912:25+2:025m--2740.15090mNRShahganj, Uttar Pradesh
24JNUJaunpur Junction (5)X  13:05+1:5813:07+2:042m12773.42383mNRJaunpur, Uttar Pradesh
25ZBDZafarabad Junction (4)X  13:24+1:5913:25+2:011m--2779.83683mNRNational Highway 56, Uttar Pradesh
26JLLJalalGanj (2)  13:45+1:5613:46+1:561m--2791.93287mNRJalalganj Railway Station, Uttar Pradesh
27BSBVaranasi Junction (9)X  15:00+1:3515:15+1:3915m82831.01882mNRVaranasi, Uttar Pradesh
28MGSMughal Sarai Junction (8)  16:10+1:3216:25+1:3015m--2847.57483mECRMughalsarai 232101, Uttar Pradesh
29ZNAZamania  17:01+1:4217:03+1:422m--2891.76777mECRGhazipur, Uttar Pradesh
30DLNDildarnagar Junction (2)  17:15+1:4317:17+1:432m--2905.25272mECRDildarnagar, Uttar Pradesh
31BWHBhadaura17:26+1:4317:28+1:432m--2913.06169mECRGhazipur, Uttar Pradesh
32GMRGahmar (2)X  17:36+1:4417:38+1:462m--2921.27968mECRDistt: Ghazipur, Uttar Pradesh
33CSAChausa (2)  17:45+1:5117:47+1:522m--2930.56068mECRState Highway 14, Bihar
34BXRBuxar (3)X  17:58+1:5318:03+1:515m--2941.48967mECRBuxar, Bihar
35DUREDumraon (3)  18:14+1:5518:16+1:552m--2957.78070mECRDumraon, Bihar
36RPRRaghunathpur  18:28+2:0018:30+2:012m--2973.77469mECRRaghunathpur, Bihar
37BEABihiya  18:42+2:0218:44+2:032m--2988.57167mECRBehea, Bihar
38ARAAra Junction (3)X  19:02+2:0419:07+2:025m--21009.98963mECRarrah( 06182-233411), Bihar
39BTABihta (2)X  19:22+2:1319:24+2:142m--21032.13462mECRBihta, Bihar
40DNRDanapur (5)X  19:55+2:1320:05+2:1710m--21049.41558mECRKhagaul, Bihar
41PNBE•Patna Junction (10)•X  20:42+2:0520:52+2:0910m--21058.82257mECRPatna 800001, Bihar
42RJPBRajendra Nagar Bihar (4)  20:59+2:1221:01+2:122m--21061.43455mECRPatna 800001, Bihar
43PNCPatna Saheb (3)X  21:14+2:1421:16+2:152m--21068.74159mECRPatna, Bihar
44FUTFatwa (6)  21:34+2:1221:36+2:152m--21080.95553mECRPatna, Bihar
45BKPBakhtiyarpur Junction (5)XO  22:01+2:1822:05+2:164m--21103.93851mECRPatna, Bihar
46BARHBarh (3)  22:34+2:0522:36+2:072m--21122.27149mECRBarh, Bihar
47MKAMokama Junction (3)  22:58+2:0723:03+2:055m--21148.17148mECRPatna, Bihar
48BRYABarhiya  23:18+2:1223:20+2:122m--21165.82247mECRBarahiya, Bihar
49KIULKiul Junction (5)  00:05+1:5600:10+1:565m--31182.36653mECRDist. Lakhisarai, Bihar
50AHAAbhaipur  00:31+2:0400:33+2:042m--31205.36052mERAbhaipur, Bihar
51JMPJamalpur Junction (4)  00:55+2:0701:05+2:0910m131227.16159mERJamalpur 06344-243101, Bihar
52BUPBariarpur (3)  01:16+2:1501:18+2:152m--31238.25442mERMunger, Bihar
53SGGSultanGanj  01:38+2:1201:40+2:122m--31256.24742mERSultanganj, Bihar
54BGPBhagalpur Junction (6)  02:12+2:0502:22+2:0910m--31281.15749mERBhagalpur, Bihar
55SBOSabaur (3)  02:30+2:1802:32+2:192m--31288.76142mERSabour, Bihar
56CLGKahalgaon (2)  02:54+2:4002:56+2:442m231311.23744mERBhagalpur, Bihar
57PPTPirpainti (2)  03:29+2:5003:31+2:512m--31331.52653mERBhagalpur, Bihar
58SBGSahibganj Junction (3)X  04:25+2:3704:33+2:448m131355.18438mERSahibganj, Jharkhand
59TPHTinpahar Junction (3)X  05:00+3:0605:02+3:072m231392.83345mERBamangawan, Jharkhand
60BHWBarharwa Junction (3)  05:32+2:5905:36+3:004m231409.54036mERBarharwa, Jharkhand
61NFKNew Farakka Junction (3)X  06:03+3:0406:08+3:035m231427.52932mERDist - Murshidabad, West Bengal
62MLDTMalda Town (5)  07:20+2:39---31462.6-30mERDist - Malda, West Bengal
Scroll to Top
Scroll to Bottom